ZSMUL FCOI-FCOU

Flight info

Callsign ZSMUL
Flight time 0h 58m
Altitude 10000
Route SEXOR
Aircraft DC6/M-SDFGRWY/S

Departure

Time 2026-05-07 05:31
Airport Impfondo Airport (FCOI)

Arrival

Time 2026-05-07 06:29
Airport Ouesso Airport (FCOU)
Time Latitude Longitude Altitude Speed Heading
2026-05-07 05:07 1.59236 18.05074 1060 ft 0 kts 27°
2026-05-07 05:18 1.59226 18.05069 1054 ft 4 kts 11°
2026-05-07 05:18 1.59209 18.05071 1063 ft 4 kts 283°
2026-05-07 05:18 1.59210 18.05094 1059 ft 4 kts 255°
2026-05-07 05:19 1.59213 18.05104 1061 ft 0 kts 256°
2026-05-07 05:23 1.59213 18.05103 1060 ft 1 kts 256°
2026-05-07 05:23 1.59211 18.05096 1057 ft 1 kts 254°
2026-05-07 05:23 1.59208 18.05087 1057 ft 1 kts 249°
2026-05-07 05:24 1.59204 18.05080 1061 ft 1 kts 242°
2026-05-07 05:24 1.59197 18.05070 1059 ft 3 kts 225°
2026-05-07 05:24 1.59177 18.05059 1059 ft 4 kts 191°
2026-05-07 05:24 1.59144 18.05061 1059 ft 6 kts 173°
2026-05-07 05:25 1.59100 18.05068 1058 ft 7 kts 167°
2026-05-07 05:25 1.59038 18.05090 1056 ft 10 kts 131°
2026-05-07 05:25 1.59031 18.05149 1055 ft 9 kts 81°
2026-05-07 05:25 1.59043 18.05225 1055 ft 14 kts 81°
2026-05-07 05:26 1.59058 18.05306 1056 ft 9 kts 80°
2026-05-07 05:26 1.59065 18.05352 1056 ft 7 kts 81°
2026-05-07 05:26 1.59074 18.05410 1058 ft 11 kts 82°
2026-05-07 05:26 1.59085 18.05484 1057 ft 9 kts 79°
2026-05-07 05:27 1.59095 18.05522 1060 ft 3 kts 69°
2026-05-07 05:27 1.59103 18.05539 1060 ft 3 kts 60°
2026-05-07 05:27 1.59117 18.05560 1060 ft 4 kts 51°
2026-05-07 05:27 1.59124 18.05581 1060 ft 3 kts 118°
2026-05-07 05:28 1.59102 18.05582 1062 ft 4 kts 234°
2026-05-07 05:28 1.59099 18.05568 1061 ft 1 kts 267°
2026-05-07 05:28 1.59098 18.05544 1060 ft 8 kts 267°
2026-05-07 05:28 1.59078 18.05425 1058 ft 33 kts 259°
2026-05-07 05:29 1.59020 18.05075 1055 ft 70 kts 260°
2026-05-07 05:29 1.58921 18.04488 1060 ft 101 kts 261°
2026-05-07 05:29 1.58795 18.03721 1104 ft 119 kts 261°
2026-05-07 05:29 1.58695 18.02884 1219 ft 125 kts 267°
2026-05-07 05:30 1.58757 18.01981 1307 ft 135 kts 278°
2026-05-07 05:30 1.58939 18.00997 1345 ft 151 kts 281°
2026-05-07 05:30 1.59151 17.99929 1476 ft 160 kts 279°
2026-05-07 05:30 1.59327 17.98813 1585 ft 170 kts 277°
2026-05-07 05:31 1.59415 17.97628 1841 ft 169 kts 272°
2026-05-07 05:31 1.59419 17.96460 2093 ft 166 kts 269°
2026-05-07 05:31 1.59408 17.95290 2195 ft 171 kts 269°
2026-05-07 05:31 1.59417 17.94106 2395 ft 170 kts 271°
2026-05-07 05:32 1.59466 17.92932 2578 ft 169 kts 272°
2026-05-07 05:32 1.59511 17.91760 2766 ft 169 kts 271°
2026-05-07 05:32 1.59554 17.90588 2945 ft 169 kts 271°
2026-05-07 05:32 1.59597 17.89411 3114 ft 169 kts 270°
2026-05-07 05:33 1.59641 17.88251 3275 ft 170 kts 271°
2026-05-07 05:33 1.59684 17.87070 3432 ft 170 kts 270°
2026-05-07 05:33 1.59728 17.85889 3587 ft 170 kts 271°
2026-05-07 05:33 1.59771 17.84704 3760 ft 171 kts 270°
2026-05-07 05:34 1.59815 17.83519 3933 ft 171 kts 270°
2026-05-07 05:34 1.59859 17.82334 4095 ft 171 kts 270°
2026-05-07 05:34 1.59902 17.81148 4254 ft 171 kts 271°
2026-05-07 05:34 1.59946 17.79959 4427 ft 172 kts 270°
2026-05-07 05:35 1.59989 17.78764 4585 ft 172 kts 270°
2026-05-07 05:35 1.60034 17.77580 4737 ft 173 kts 270°
2026-05-07 05:35 1.60077 17.76374 4886 ft 174 kts 271°
2026-05-07 05:35 1.60123 17.75164 5059 ft 174 kts 271°
2026-05-07 05:36 1.60167 17.73953 5247 ft 175 kts 271°
2026-05-07 05:36 1.60211 17.72734 5447 ft 176 kts 271°
2026-05-07 05:36 1.60258 17.71506 5602 ft 178 kts 271°
2026-05-07 05:36 1.60303 17.70266 5750 ft 179 kts 271°
2026-05-07 05:37 1.60348 17.69018 5897 ft 180 kts 271°
2026-05-07 05:37 1.60393 17.67780 6040 ft 181 kts 271°
2026-05-07 05:37 1.60440 17.66518 6191 ft 182 kts 271°
2026-05-07 05:37 1.60487 17.65248 6331 ft 183 kts 271°
2026-05-07 05:38 1.60533 17.63973 6471 ft 184 kts 271°
2026-05-07 05:38 1.60581 17.62694 6604 ft 184 kts 272°
2026-05-07 05:38 1.60628 17.61407 6737 ft 186 kts 272°
2026-05-07 05:38 1.60675 17.60111 6877 ft 187 kts 272°
2026-05-07 05:39 1.60724 17.58811 7035 ft 188 kts 272°
2026-05-07 05:39 1.60771 17.57504 7171 ft 189 kts 272°
2026-05-07 05:39 1.60819 17.56211 7305 ft 189 kts 272°
2026-05-07 05:39 1.60867 17.54896 7434 ft 190 kts 272°
2026-05-07 05:40 1.60916 17.53576 7561 ft 190 kts 272°
2026-05-07 05:40 1.60963 17.52253 7693 ft 191 kts 272°
2026-05-07 05:40 1.61013 17.50924 7820 ft 191 kts 272°
2026-05-07 05:40 1.61060 17.49594 7948 ft 192 kts 272°
2026-05-07 05:41 1.61111 17.48258 8069 ft 192 kts 273°
2026-05-07 05:41 1.61103 17.46921 8177 ft 193 kts 268°
2026-05-07 05:41 1.61102 17.45575 8305 ft 194 kts 272°
2026-05-07 05:41 1.61124 17.44240 8444 ft 195 kts 271°
2026-05-07 05:42 1.61122 17.42878 8574 ft 196 kts 270°
2026-05-07 05:42 1.61122 17.41510 8717 ft 197 kts 271°
2026-05-07 05:42 1.61118 17.40134 8870 ft 198 kts 270°
2026-05-07 05:42 1.61121 17.38753 8997 ft 199 kts 271°
2026-05-07 05:43 1.61119 17.37364 9132 ft 200 kts 271°
2026-05-07 05:43 1.61119 17.35968 9272 ft 201 kts 271°
2026-05-07 05:43 1.61116 17.34568 9408 ft 202 kts 271°
2026-05-07 05:43 1.61116 17.33183 9540 ft 202 kts 271°
2026-05-07 05:44 1.61115 17.31775 9675 ft 203 kts 271°
2026-05-07 05:44 1.61113 17.30359 9801 ft 204 kts 271°
2026-05-07 05:44 1.61114 17.28935 9929 ft 205 kts 271°
2026-05-07 05:44 1.61112 17.27480 9937 ft 213 kts 271°
2026-05-07 05:45 1.61113 17.25994 9938 ft 214 kts 271°
2026-05-07 05:45 1.61110 17.24501 9935 ft 215 kts 271°
2026-05-07 05:45 1.61108 17.23001 9929 ft 217 kts 271°
2026-05-07 05:45 1.61107 17.21490 9932 ft 218 kts 271°
2026-05-07 05:46 1.61107 17.19993 9933 ft 219 kts 271°
2026-05-07 05:46 1.61105 17.18464 9929 ft 221 kts 271°
2026-05-07 05:46 1.61104 17.16926 9932 ft 222 kts 271°
2026-05-07 05:46 1.61103 17.15380 9936 ft 223 kts 271°
2026-05-07 05:47 1.61102 17.13829 9933 ft 224 kts 271°
2026-05-07 05:47 1.61100 17.12271 9932 ft 225 kts 271°
2026-05-07 05:47 1.61099 17.10703 9935 ft 226 kts 271°
2026-05-07 05:47 1.61097 17.09129 9937 ft 227 kts 271°
2026-05-07 05:48 1.61097 17.07570 9935 ft 228 kts 271°
2026-05-07 05:48 1.61095 17.05986 9938 ft 228 kts 271°
2026-05-07 05:48 1.61094 17.04396 9937 ft 229 kts 271°
2026-05-07 05:48 1.61092 17.02798 9934 ft 230 kts 271°
2026-05-07 05:49 1.61091 17.01199 9931 ft 231 kts 271°
2026-05-07 05:49 1.61089 16.99591 9929 ft 232 kts 271°
2026-05-07 05:49 1.61088 16.97982 9932 ft 232 kts 271°
2026-05-07 05:49 1.61087 16.96368 9941 ft 233 kts 271°
2026-05-07 05:50 1.61085 16.94751 9938 ft 233 kts 271°
2026-05-07 05:50 1.61083 16.93153 9932 ft 233 kts 271°
2026-05-07 05:50 1.61083 16.91531 9936 ft 234 kts 271°
2026-05-07 05:50 1.61080 16.89905 9933 ft 234 kts 271°
2026-05-07 05:51 1.61079 16.88276 9936 ft 235 kts 271°
2026-05-07 05:51 1.61077 16.86644 9937 ft 235 kts 271°
2026-05-07 05:51 1.61077 16.85008 9940 ft 235 kts 271°
2026-05-07 05:51 1.61074 16.83368 9939 ft 237 kts 271°
2026-05-07 05:52 1.61073 16.81716 9937 ft 238 kts 271°
2026-05-07 05:52 1.61071 16.80081 9938 ft 239 kts 271°
2026-05-07 05:52 1.61070 16.78421 9935 ft 239 kts 271°
2026-05-07 05:52 1.61068 16.76762 9936 ft 239 kts 271°
2026-05-07 05:53 1.61067 16.75099 9936 ft 239 kts 271°
2026-05-07 05:53 1.61065 16.73436 9931 ft 240 kts 271°
2026-05-07 05:53 1.61062 16.71767 9935 ft 240 kts 271°
2026-05-07 05:53 1.61062 16.70096 9934 ft 241 kts 271°
2026-05-07 05:54 1.61059 16.68424 9935 ft 240 kts 271°
2026-05-07 05:54 1.61058 16.66755 9935 ft 241 kts 271°
2026-05-07 05:54 1.61056 16.65082 9936 ft 241 kts 271°
2026-05-07 05:54 1.61054 16.63432 9937 ft 241 kts 271°
2026-05-07 05:55 1.61053 16.61758 9937 ft 241 kts 271°
2026-05-07 05:55 1.61051 16.60086 9937 ft 241 kts 271°
2026-05-07 05:55 1.61048 16.58411 9932 ft 241 kts 271°
2026-05-07 05:55 1.61047 16.56735 9933 ft 241 kts 271°
2026-05-07 05:56 1.61046 16.55059 9931 ft 241 kts 271°
2026-05-07 05:56 1.61044 16.53384 9936 ft 241 kts 271°
2026-05-07 05:56 1.61041 16.51706 9936 ft 241 kts 271°
2026-05-07 05:56 1.61040 16.50050 9936 ft 241 kts 271°
2026-05-07 05:57 1.61038 16.48372 9940 ft 242 kts 271°
2026-05-07 05:57 1.61036 16.46693 9936 ft 241 kts 271°
2026-05-07 05:57 1.61034 16.45015 9939 ft 242 kts 271°
2026-05-07 05:57 1.61032 16.43336 9937 ft 242 kts 271°
2026-05-07 05:58 1.61030 16.41661 9937 ft 242 kts 271°
2026-05-07 05:58 1.61028 16.39978 9936 ft 242 kts 271°
2026-05-07 05:58 1.61026 16.38298 9935 ft 242 kts 271°
2026-05-07 05:58 1.61025 16.36620 9939 ft 241 kts 271°
2026-05-07 05:59 1.61022 16.34943 9935 ft 242 kts 271°
2026-05-07 05:59 1.61020 16.33287 9938 ft 241 kts 271°
2026-05-07 05:59 1.61018 16.31610 9939 ft 241 kts 271°
2026-05-07 05:59 1.61016 16.29931 9938 ft 242 kts 271°
2026-05-07 06:00 1.61014 16.28252 9935 ft 242 kts 271°
2026-05-07 06:00 1.61012 16.26573 9937 ft 241 kts 271°
2026-05-07 06:00 1.61010 16.24895 9938 ft 241 kts 271°
2026-05-07 06:00 1.61008 16.23215 9940 ft 242 kts 271°
2026-05-07 06:01 1.61006 16.21538 9937 ft 241 kts 271°
2026-05-07 06:01 1.61003 16.19883 9937 ft 241 kts 271°
2026-05-07 06:01 1.61001 16.18207 9938 ft 241 kts 271°
2026-05-07 06:01 1.60999 16.16532 9937 ft 241 kts 271°
2026-05-07 06:02 1.60997 16.14855 9941 ft 241 kts 271°
2026-05-07 06:02 1.60995 16.13179 9940 ft 241 kts 271°
2026-05-07 06:02 1.60993 16.11500 9941 ft 242 kts 271°
2026-05-07 06:02 1.60990 16.09823 9938 ft 242 kts 271°
2026-05-07 06:03 1.60989 16.08140 9943 ft 242 kts 271°
2026-05-07 06:03 1.60986 16.06459 9942 ft 242 kts 271°
2026-05-07 06:03 1.60984 16.04777 9944 ft 242 kts 271°
2026-05-07 06:03 1.60981 16.03119 9945 ft 242 kts 271°
2026-05-07 06:04 1.60979 16.01434 9945 ft 242 kts 271°
2026-05-07 06:04 1.60977 15.99749 9948 ft 243 kts 271°
2026-05-07 06:04 1.60975 15.98063 9948 ft 243 kts 271°
2026-05-07 06:04 1.60973 15.96377 9943 ft 243 kts 271°
2026-05-07 06:05 1.60970 15.94691 9942 ft 242 kts 271°
2026-05-07 06:05 1.60967 15.93006 9944 ft 242 kts 271°
2026-05-07 06:05 1.60964 15.91321 9943 ft 243 kts 271°
2026-05-07 06:05 1.60963 15.89635 9944 ft 242 kts 271°
2026-05-07 06:06 1.60960 15.87950 9946 ft 243 kts 271°
2026-05-07 06:06 1.60957 15.86285 9946 ft 243 kts 271°
2026-05-07 06:06 1.60955 15.84598 9947 ft 243 kts 271°
2026-05-07 06:06 1.60953 15.82908 9947 ft 243 kts 271°
2026-05-07 06:07 1.60951 15.81221 9948 ft 243 kts 271°
2026-05-07 06:07 1.60949 15.79531 9948 ft 243 kts 271°
2026-05-07 06:07 1.60945 15.77841 9948 ft 243 kts 271°
2026-05-07 06:07 1.60943 15.76151 9952 ft 243 kts 271°
2026-05-07 06:08 1.60941 15.74461 9950 ft 243 kts 271°
2026-05-07 06:08 1.60938 15.72793 9949 ft 243 kts 271°
2026-05-07 06:08 1.60935 15.71101 9951 ft 244 kts 271°
2026-05-07 06:08 1.60934 15.69405 9951 ft 244 kts 271°
2026-05-07 06:09 1.60930 15.67712 9950 ft 244 kts 271°
2026-05-07 06:09 1.60928 15.66018 9953 ft 244 kts 271°
2026-05-07 06:09 1.60925 15.64324 9950 ft 244 kts 271°
2026-05-07 06:09 1.60923 15.62631 9952 ft 244 kts 271°
2026-05-07 06:10 1.60919 15.60940 9954 ft 244 kts 271°
2026-05-07 06:10 1.60917 15.59245 9952 ft 244 kts 271°
2026-05-07 06:10 1.60915 15.57575 9951 ft 244 kts 271°
2026-05-07 06:10 1.60912 15.55882 9952 ft 244 kts 271°
2026-05-07 06:11 1.60909 15.54189 9953 ft 244 kts 271°
2026-05-07 06:11 1.60907 15.52496 9955 ft 243 kts 271°
2026-05-07 06:11 1.60903 15.50803 9956 ft 244 kts 271°
2026-05-07 06:11 1.60901 15.49113 9958 ft 244 kts 271°
2026-05-07 06:12 1.60899 15.47420 9956 ft 244 kts 271°
2026-05-07 06:12 1.60896 15.45725 9958 ft 244 kts 271°
2026-05-07 06:12 1.60892 15.44028 9958 ft 244 kts 271°
2026-05-07 06:12 1.60890 15.42356 9959 ft 244 kts 271°
2026-05-07 06:13 1.60887 15.40661 9957 ft 244 kts 271°
2026-05-07 06:13 1.60885 15.38965 9958 ft 244 kts 271°
2026-05-07 06:13 1.60882 15.37267 9960 ft 244 kts 271°
2026-05-07 06:13 1.60881 15.35575 9954 ft 243 kts 272°
2026-05-07 06:14 1.61213 15.33901 9565 ft 253 kts 295°
2026-05-07 06:14 1.62210 15.32436 9085 ft 259 kts 319°
2026-05-07 06:14 1.63716 15.31462 8651 ft 260 kts 342°
2026-05-07 06:14 1.65454 15.31137 8241 ft 259 kts
2026-05-07 06:15 1.67202 15.31500 7829 ft 258 kts 25°
2026-05-07 06:15 1.68678 15.32502 7431 ft 258 kts 46°
2026-05-07 06:15 1.69664 15.34000 7034 ft 260 kts 68°
2026-05-07 06:15 1.70011 15.35773 6654 ft 263 kts 89°
2026-05-07 06:16 1.69667 15.37570 6275 ft 266 kts 110°
2026-05-07 06:16 1.68933 15.39268 5920 ft 266 kts 113°
2026-05-07 06:16 1.68294 15.41009 5559 ft 267 kts 105°
2026-05-07 06:16 1.67973 15.42840 5197 ft 269 kts 95°
2026-05-07 06:17 1.67858 15.44704 4857 ft 269 kts 94°
2026-05-07 06:17 1.67679 15.46543 4504 ft 270 kts 97°
2026-05-07 06:17 1.67433 15.48409 4160 ft 271 kts 97°
2026-05-07 06:17 1.67204 15.50281 3829 ft 272 kts 97°
2026-05-07 06:18 1.66993 15.52161 3494 ft 272 kts 96°
2026-05-07 06:18 1.66776 15.54041 3176 ft 272 kts 97°
2026-05-07 06:18 1.66554 15.55921 2840 ft 272 kts 97°
2026-05-07 06:18 1.66335 15.57798 2512 ft 272 kts 97°
2026-05-07 06:19 1.66116 15.59673 2179 ft 271 kts 97°
2026-05-07 06:19 1.65902 15.61515 1869 ft 270 kts 97°
2026-05-07 06:19 1.65687 15.63354 1827 ft 258 kts 97°
2026-05-07 06:19 1.65485 15.65073 1945 ft 242 kts 97°
2026-05-07 06:20 1.65298 15.66699 2101 ft 227 kts 96°
2026-05-07 06:20 1.65121 15.68219 2281 ft 215 kts 97°
2026-05-07 06:20 1.64936 15.69665 2398 ft 206 kts 102°
2026-05-07 06:20 1.64202 15.70850 2373 ft 203 kts 144°
2026-05-07 06:21 1.62951 15.71433 2406 ft 198 kts 154°
2026-05-07 06:21 1.61784 15.72165 2416 ft 198 kts 147°
2026-05-07 06:21 1.60633 15.72926 2417 ft 199 kts 148°
2026-05-07 06:21 1.59474 15.73684 2412 ft 200 kts 148°
2026-05-07 06:22 1.58325 15.74435 2415 ft 200 kts 148°
2026-05-07 06:22 1.56478 15.76326 2486 ft 180 kts 117°
2026-05-07 06:22 1.55912 15.77418 2468 ft 175 kts 117°
2026-05-07 06:23 1.55354 15.78482 2470 ft 170 kts 118°
2026-05-07 06:23 1.54845 15.79492 2562 ft 160 kts 116°
2026-05-07 06:23 1.54407 15.80536 2431 ft 168 kts 108°
2026-05-07 06:23 1.54104 15.81672 2429 ft 168 kts 105°
2026-05-07 06:24 1.53809 15.82783 2441 ft 169 kts 105°
2026-05-07 06:24 1.53574 15.83945 2394 ft 174 kts 97°
2026-05-07 06:24 1.53506 15.85162 2482 ft 177 kts 91°
2026-05-07 06:24 1.53492 15.86396 2566 ft 180 kts 90°
2026-05-07 06:25 1.53499 15.87669 2564 ft 188 kts 89°
2026-05-07 06:25 1.53515 15.89007 2530 ft 196 kts 88°
2026-05-07 06:25 1.53586 15.90361 2559 ft 192 kts 85°
2026-05-07 06:25 1.53687 15.91676 2494 ft 190 kts 84°
2026-05-07 06:26 1.53853 15.92961 2440 ft 187 kts 81°
2026-05-07 06:26 1.54053 15.94233 2401 ft 184 kts 80°
2026-05-07 06:26 1.54277 15.95487 2338 ft 183 kts 80°
2026-05-07 06:26 1.54508 15.96734 2269 ft 182 kts 78°
2026-05-07 06:27 1.54791 15.97972 2171 ft 182 kts 73°
2026-05-07 06:27 1.55218 15.99143 2106 ft 177 kts 65°
2026-05-07 06:27 1.55799 16.00204 2052 ft 169 kts 56°
2026-05-07 06:27 1.56467 16.01115 1950 ft 159 kts 51°
2026-05-07 06:28 1.57179 16.01938 1842 ft 152 kts 46°
2026-05-07 06:28 1.57908 16.02592 1778 ft 134 kts 37°
2026-05-07 06:28 1.58699 16.03027 1605 ft 127 kts 19°
2026-05-07 06:28 1.59538 16.03253 1445 ft 123 kts 11°
2026-05-07 06:29 1.60362 16.03452 1257 ft 120 kts 14°
2026-05-07 06:29 1.61132 16.03647 1162 ft 101 kts 14°
2026-05-07 06:29 1.61633 16.03773 1162 ft 50 kts 13°
2026-05-07 06:29 1.61826 16.03828 1165 ft 13 kts 29°
2026-05-07 06:30 1.61843 16.03828 1164 ft 2 kts 292°
2026-05-07 06:30 1.61820 16.03810 1164 ft 8 kts 189°
2026-05-07 06:30 1.61729 16.03794 1164 ft 19 kts 193°
2026-05-07 06:30 1.61564 16.03752 1163 ft 30 kts 194°
2026-05-07 06:31 1.61321 16.03694 1159 ft 40 kts 195°
2026-05-07 06:31 1.61071 16.03631 1161 ft 29 kts 193°
2026-05-07 06:31 1.60969 16.03657 1160 ft 13 kts 112°
2026-05-07 06:31 1.60948 16.03733 1158 ft 10 kts 104°
2026-05-07 06:32 1.60934 16.03788 1160 ft 8 kts 104°
2026-05-07 06:32 1.60917 16.03857 1161 ft 11 kts 104°
2026-05-07 06:32 1.60892 16.03921 1161 ft 6 kts 114°
2026-05-07 06:32 1.60886 16.03939 1163 ft 0 kts 105°
2026-05-07 06:33 1.60886 16.03942 1163 ft 0 kts 105°
2026-05-07 06:59 1.60888 16.03936 1163 ft 4 kts 102°
2026-05-07 06:59 1.60888 16.03912 1162 ft 4 kts 48°
2026-05-07 07:00 1.60869 16.03901 1160 ft 4 kts 19°
2026-05-07 07:00 1.60850 16.03896 1159 ft 0 kts 14°
2026-05-07 07:03 1.60851 16.03896 1159 ft 1 kts 14°
2026-05-07 07:04 1.60856 16.03897 1161 ft 0 kts 12°
2026-05-07 07:04 1.60860 16.03898 1161 ft 2 kts 11°
2026-05-07 07:04 1.60887 16.03898 1160 ft 6 kts 342°
2026-05-07 07:04 1.60922 16.03831 1161 ft 17 kts 277°
2026-05-07 07:05 1.60956 16.03690 1160 ft 22 kts 288°
2026-05-07 07:05 1.60923 16.03594 1160 ft 13 kts 193°
2026-05-07 07:05 1.60840 16.03572 1160 ft 12 kts 195°
2026-05-07 07:05 1.60760 16.03543 1160 ft 12 kts 213°
2026-05-07 07:06 1.60731 16.03538 1162 ft 3 kts 103°
2026-05-07 07:06 1.60747 16.03552 1160 ft 5 kts 11°
2026-05-07 07:06 1.60832 16.03571 1160 ft 28 kts 13°
2026-05-07 07:06 1.61155 16.03652 1161 ft 67 kts 14°
2026-05-07 07:07 1.61720 16.03793 1164 ft 99 kts 13°
2026-05-07 07:07 1.62467 16.03980 1205 ft 118 kts 13°
2026-05-07 07:07 1.63302 16.04189 1290 ft 129 kts 15°
2026-05-07 07:07 1.64132 16.04592 1407 ft 136 kts 34°
2026-05-07 07:08 1.64803 16.05264 1567 ft 140 kts 57°
2026-05-07 07:08 1.65074 16.06207 1697 ft 147 kts 90°
2026-05-07 07:08 1.64782 16.07211 1728 ft 161 kts 121°
2026-05-07 07:08 1.64029 16.08022 1947 ft 161 kts 145°
2026-05-07 07:09 1.62991 16.08458 2099 ft 165 kts 172°
2026-05-07 07:09 1.61853 16.08534 2331 ft 163 kts 179°
2026-05-07 07:09 1.60715 16.08546 2493 ft 165 kts 181°
2026-05-07 07:09 1.59545 16.08541 2578 ft 171 kts 181°
2026-05-07 07:10 1.58341 16.08546 2706 ft 175 kts 180°
2026-05-07 07:10 1.57113 16.08551 2840 ft 178 kts 181°
2026-05-07 07:10 1.55885 16.08557 2979 ft 180 kts 180°
2026-05-07 07:10 1.54638 16.08563 3174 ft 178 kts 180°
2026-05-07 07:11 1.53403 16.08568 3364 ft 177 kts 180°
2026-05-07 07:11 1.52177 16.08571 3541 ft 176 kts 180°
2026-05-07 07:11 1.50956 16.08573 3719 ft 175 kts 180°
2026-05-07 07:11 1.49738 16.08576 3892 ft 175 kts 180°
2026-05-07 07:12 1.48517 16.08579 4071 ft 176 kts 180°
2026-05-07 07:12 1.47295 16.08581 4244 ft 176 kts 181°
2026-05-07 07:12 1.46071 16.08584 4410 ft 176 kts 180°
2026-05-07 07:12 1.44863 16.08585 4582 ft 176 kts 181°
2026-05-07 07:13 1.43644 16.08644 4730 ft 176 kts 171°
2026-05-07 07:13 1.42462 16.08973 4896 ft 177 kts 162°
2026-05-07 07:13 1.41284 16.09328 5059 ft 177 kts 164°
2026-05-07 07:13 1.40101 16.09670 5217 ft 177 kts 163°
2026-05-07 07:14 1.38915 16.10015 5380 ft 177 kts 163°
2026-05-07 07:14 1.37728 16.10357 5545 ft 178 kts 163°
2026-05-07 07:14 1.36539 16.10703 5715 ft 178 kts 163°
2026-05-07 07:14 1.35364 16.11045 5877 ft 178 kts 162°
2026-05-07 07:15 1.34171 16.11390 6035 ft 179 kts 162°
2026-05-07 07:15 1.32976 16.11736 6190 ft 179 kts 162°
2026-05-07 07:15 1.31778 16.12083 6350 ft 179 kts 162°
2026-05-07 07:15 1.30578 16.12431 6501 ft 180 kts 162°
2026-05-07 07:16 1.29378 16.12778 6662 ft 180 kts 162°
2026-05-07 07:16 1.28175 16.13127 6815 ft 181 kts 162°
2026-05-07 07:16 1.26966 16.13476 6969 ft 181 kts 161°
2026-05-07 07:16 1.25758 16.13828 7126 ft 181 kts 161°
2026-05-07 07:17 1.24564 16.14171 7278 ft 181 kts 161°
2026-05-07 07:17 1.23355 16.14523 7433 ft 181 kts 161°
2026-05-07 07:17 1.22146 16.14873 7574 ft 181 kts 160°
2026-05-07 07:17 1.20938 16.15223 7721 ft 181 kts 160°
2026-05-07 07:18 1.19728 16.15575 7865 ft 181 kts 160°
2026-05-07 07:18 1.18520 16.15922 8012 ft 181 kts 160°
2026-05-07 07:18 1.17313 16.16273 8149 ft 181 kts 159°
2026-05-07 07:18 1.16103 16.16624 8300 ft 182 kts 159°
2026-05-07 07:19 1.14888 16.16976 8458 ft 182 kts 159°
2026-05-07 07:19 1.13687 16.17324 8610 ft 182 kts 159°
2026-05-07 07:19 1.12470 16.17676 8761 ft 182 kts 158°
2026-05-07 07:19 1.11252 16.18030 8922 ft 182 kts 158°
2026-05-07 07:20 1.10036 16.18381 9084 ft 182 kts 158°
2026-05-07 07:20 1.08820 16.18733 9228 ft 182 kts 158°
2026-05-07 07:20 1.07600 16.19086 9376 ft 183 kts 157°
2026-05-07 07:20 1.06376 16.19441 9530 ft 183 kts 157°
2026-05-07 07:21 1.05152 16.19797 9699 ft 183 kts 157°
2026-05-07 07:21 1.03927 16.20150 9848 ft 183 kts 156°
2026-05-07 07:21 1.02718 16.20502 9986 ft 183 kts 157°
2026-05-07 07:21 1.01493 16.20856 10131 ft 183 kts 157°
2026-05-07 07:22 1.00268 16.21210 10270 ft 183 kts 157°
2026-05-07 07:22 0.99043 16.21565 10399 ft 183 kts 157°
2026-05-07 07:22 0.97818 16.21921 10527 ft 184 kts 157°
2026-05-07 07:22 0.96587 16.22275 10674 ft 184 kts 157°
2026-05-07 07:23 0.95354 16.22634 10794 ft 185 kts 157°
2026-05-07 07:23 0.94119 16.22992 10910 ft 185 kts 157°
2026-05-07 07:23 0.92881 16.23350 11034 ft 185 kts 157°
2026-05-07 07:23 0.91659 16.23703 11157 ft 185 kts 157°
2026-05-07 07:24 0.90421 16.24063 11274 ft 185 kts 158°
2026-05-07 07:24 0.89183 16.24420 11412 ft 186 kts 158°
2026-05-07 07:24 0.87939 16.24782 11543 ft 186 kts 158°
2026-05-07 07:24 0.86692 16.25142 11675 ft 187 kts 158°
2026-05-07 07:25 0.84194 16.25865 11936 ft 187 kts 158°
2026-05-07 07:25 0.82943 16.26229 12069 ft 187 kts 158°
2026-05-07 07:25 0.81677 16.26597 12064 ft 196 kts 158°
2026-05-07 07:26 0.80343 16.26984 12070 ft 203 kts 158°
2026-05-07 07:26 0.78960 16.27383 12072 ft 210 kts 159°
2026-05-07 07:26 0.77548 16.27791 12072 ft 212 kts 159°
2026-05-07 07:26 0.76135 16.28199 12061 ft 211 kts 159°
2026-05-07 07:27 0.74727 16.28606 12058 ft 211 kts 159°
2026-05-07 07:27 0.73318 16.29015 12061 ft 211 kts 159°
2026-05-07 07:27 0.71908 16.29424 12062 ft 211 kts 159°
2026-05-07 07:27 0.70496 16.29832 12057 ft 211 kts 159°
2026-05-07 07:28 0.69105 16.30235 12061 ft 211 kts 159°
2026-05-07 07:28 0.67693 16.30644 12066 ft 211 kts 159°
2026-05-07 07:28 0.66279 16.31054 12062 ft 211 kts 159°
2026-05-07 07:28 0.64867 16.31463 12061 ft 211 kts 159°
2026-05-07 07:29 0.63454 16.31872 12065 ft 211 kts 159°
2026-05-07 07:29 0.62040 16.32281 12065 ft 212 kts 159°
2026-05-07 07:29 0.60626 16.32690 12066 ft 212 kts 159°
2026-05-07 07:29 0.59212 16.33100 12059 ft 212 kts 159°
2026-05-07 07:30 0.57817 16.33504 12061 ft 212 kts 159°
2026-05-07 07:30 0.56401 16.33913 12063 ft 212 kts 159°
2026-05-07 07:30 0.54988 16.34323 12059 ft 212 kts 159°
2026-05-07 07:30 0.53573 16.34732 12063 ft 212 kts 159°
2026-05-07 07:31 0.52158 16.35143 12064 ft 212 kts 159°
2026-05-07 07:31 0.50743 16.35553 12069 ft 212 kts 159°
2026-05-07 07:31 0.49325 16.35962 12063 ft 212 kts 159°
2026-05-07 07:31 0.47909 16.36373 12063 ft 212 kts 159°
2026-05-07 07:32 0.46488 16.36784 12069 ft 213 kts 159°
2026-05-07 07:32 0.45079 16.37197 12060 ft 215 kts 160°
2026-05-07 07:32 0.43639 16.37607 12062 ft 216 kts 159°
2026-05-07 07:32 0.42201 16.38025 12063 ft 215 kts 159°
2026-05-07 07:33 0.40762 16.38443 12061 ft 215 kts 159°
2026-05-07 07:33 0.39323 16.38860 12062 ft 216 kts 159°
2026-05-07 07:33 0.37880 16.39277 12066 ft 216 kts 159°
2026-05-07 07:33 0.36438 16.39694 12066 ft 216 kts 159°
2026-05-07 07:34 0.34996 16.40111 12062 ft 216 kts 159°
2026-05-07 07:34 0.33574 16.40524 12065 ft 216 kts 159°
2026-05-07 07:34 0.32134 16.40940 12063 ft 215 kts 159°
2026-05-07 07:34 0.30696 16.41357 12065 ft 215 kts 159°
2026-05-07 07:35 0.29259 16.41772 12058 ft 215 kts 159°
2026-05-07 07:35 0.27820 16.42190 12061 ft 215 kts 159°
2026-05-07 07:35 0.26383 16.42606 12065 ft 215 kts 159°
2026-05-07 07:35 0.24947 16.43021 12068 ft 215 kts 159°
2026-05-07 07:36 0.23511 16.43438 12064 ft 215 kts 159°
2026-05-07 07:36 0.22073 16.43854 12064 ft 215 kts 160°
2026-05-07 07:36 0.20656 16.44264 12058 ft 215 kts 160°
2026-05-07 07:36 0.19222 16.44679 12058 ft 215 kts 159°
2026-05-07 07:37 0.17787 16.45095 12058 ft 215 kts 159°
2026-05-07 07:37 0.16352 16.45510 12058 ft 215 kts 160°
2026-05-07 07:37 0.14918 16.45925 12057 ft 215 kts 159°
2026-05-07 07:37 0.13483 16.46340 12055 ft 214 kts 160°
2026-05-07 07:38 0.12051 16.46756 12056 ft 214 kts 159°
2026-05-07 07:38 0.10620 16.47170 12055 ft 214 kts 160°
2026-05-07 07:38 0.09207 16.47579 12058 ft 214 kts 160°
2026-05-07 07:38 0.07774 16.47994 12056 ft 214 kts 160°
2026-05-07 07:39 0.06341 16.48409 12058 ft 214 kts 160°
2026-05-07 07:39 0.04908 16.48824 12058 ft 214 kts 160°
2026-05-07 07:39 0.03475 16.49238 12057 ft 214 kts 160°
2026-05-07 07:39 0.02042 16.49654 12056 ft 214 kts 160°
2026-05-07 07:40 0.00610 16.50068 12058 ft 214 kts 160°
2026-05-07 07:40 -0.00823 16.50483 12053 ft 214 kts 160°
2026-05-07 07:40 -0.02257 16.50898 12062 ft 215 kts 160°
2026-05-07 07:40 -0.03690 16.51314 12062 ft 215 kts 160°
2026-05-07 07:41 -0.05106 16.51723 12058 ft 215 kts 160°
2026-05-07 07:41 -0.06541 16.52139 12058 ft 215 kts 160°
2026-05-07 07:41 -0.07975 16.52553 12061 ft 215 kts 160°
2026-05-07 07:41 -0.09409 16.52969 12062 ft 214 kts 160°
2026-05-07 07:42 -0.10840 16.53384 12060 ft 214 kts 160°
2026-05-07 07:42 -0.12273 16.53798 12057 ft 214 kts 160°
2026-05-07 07:42 -0.13705 16.54213 12056 ft 214 kts 160°
2026-05-07 07:42 -0.15136 16.54627 12056 ft 214 kts 160°
2026-05-07 07:43 -0.16566 16.55041 12056 ft 214 kts 160°
2026-05-07 07:43 -0.17978 16.55450 12061 ft 214 kts 160°
2026-05-07 07:43 -0.19408 16.55864 12061 ft 214 kts 160°
2026-05-07 07:43 -0.20838 16.56278 12053 ft 214 kts 160°
2026-05-07 07:44 -0.22267 16.56692 12056 ft 214 kts 160°
2026-05-07 07:44 -0.23696 16.57105 12058 ft 214 kts 160°
2026-05-07 07:44 -0.25124 16.57519 12054 ft 214 kts 160°
2026-05-07 07:44 -0.26553 16.57933 12055 ft 214 kts 160°
2026-05-07 07:45 -0.27982 16.58347 12060 ft 214 kts 160°
2026-05-07 07:45 -0.29391 16.58754 12056 ft 214 kts 160°
2026-05-07 07:45 -0.30818 16.59168 12054 ft 214 kts 160°
2026-05-07 07:45 -0.32246 16.59581 12057 ft 213 kts 160°
2026-05-07 07:46 -0.33672 16.59995 12060 ft 214 kts 160°
2026-05-07 07:46 -0.35101 16.60408 12052 ft 214 kts 160°
2026-05-07 07:46 -0.36528 16.60821 12055 ft 214 kts 160°
2026-05-07 07:46 -0.37957 16.61235 12049 ft 214 kts 160°
2026-05-07 07:47 -0.39384 16.61649 12052 ft 214 kts 160°
2026-05-07 07:47 -0.40813 16.62062 12051 ft 214 kts 160°
2026-05-07 07:47 -0.42222 16.62470 12060 ft 214 kts 160°
2026-05-07 07:47 -0.43650 16.62883 12051 ft 214 kts 160°
2026-05-07 07:48 -0.45078 16.63297 12055 ft 213 kts 160°
2026-05-07 07:48 -0.46504 16.63710 12049 ft 213 kts 160°
2026-05-07 07:48 -0.47930 16.64123 12053 ft 214 kts 160°
2026-05-07 07:48 -0.49358 16.64537 12048 ft 214 kts 160°
2026-05-07 07:49 -0.50786 16.64949 12056 ft 214 kts 160°
2026-05-07 07:49 -0.52215 16.65364 12049 ft 214 kts 160°
2026-05-07 07:49 -0.53643 16.65777 12056 ft 214 kts 160°
2026-05-07 07:49 -0.54596 16.66026 12039 ft 215 kts 166°
2026-05-07 07:50 -0.56560 16.65763 12055 ft 220 kts 199°
2026-05-07 07:50 -0.57956 16.65131 12058 ft 220 kts 200°
2026-05-07 07:50 -0.59372 16.64560 12063 ft 219 kts 197°
2026-05-07 07:50 -0.60805 16.64034 12058 ft 220 kts 197°
2026-05-07 07:51 -0.62238 16.63495 12063 ft 220 kts 197°
2026-05-07 07:51 -0.63672 16.62953 12065 ft 221 kts 197°
2026-05-07 07:51 -0.64625 16.62592 12067 ft 221 kts 197°
2026-05-07 07:51 -0.66063 16.62048 12058 ft 221 kts 197°
2026-05-07 07:52 -0.67503 16.61505 12060 ft 222 kts 197°
2026-05-07 07:52 -0.69416 16.60782 12059 ft 222 kts 197°
2026-05-07 07:52 -0.70862 16.60236 12061 ft 223 kts 197°
2026-05-07 07:52 -0.71841 16.59866 12059 ft 223 kts 197°
2026-05-07 07:53 -0.73759 16.59142 12059 ft 223 kts 197°
2026-05-07 07:53 -0.74718 16.58779 12063 ft 223 kts 197°
2026-05-07 07:53 -0.76167 16.58232 12062 ft 223 kts 197°
2026-05-07 07:53 -0.77616 16.57684 12066 ft 223 kts 197°
2026-05-07 07:54 -0.79067 16.57137 12061 ft 223 kts 197°
2026-05-07 07:54 -0.80988 16.56411 12061 ft 223 kts 197°
2026-05-07 07:54 -0.82438 16.55863 12067 ft 223 kts 197°
2026-05-07 07:54 -0.83417 16.55493 12066 ft 223 kts 197°
2026-05-07 07:55 -0.84852 16.54952 12064 ft 224 kts 197°
2026-05-07 07:55 -0.86308 16.54401 12067 ft 224 kts 197°
2026-05-07 07:55 -0.87765 16.53852 12061 ft 224 kts 197°
2026-05-07 07:55 -0.89220 16.53301 12063 ft 224 kts 198°
2026-05-07 07:56 -0.90677 16.52751 12068 ft 224 kts 198°
2026-05-07 07:56 -0.92133 16.52200 12068 ft 224 kts 198°
2026-05-07 07:56 -0.93591 16.51650 12059 ft 224 kts 198°
2026-05-07 07:56 -0.95047 16.51099 12062 ft 224 kts 198°
2026-05-07 07:57 -0.96504 16.50549 12068 ft 224 kts 198°
2026-05-07 07:57 -0.97942 16.50006 12066 ft 224 kts 198°
2026-05-07 07:57 -0.99399 16.49456 12067 ft 224 kts 198°
2026-05-07 07:57 -1.00856 16.48906 12066 ft 224 kts 198°
2026-05-07 07:58 -1.02313 16.48355 12068 ft 224 kts 198°
2026-05-07 07:58 -1.03771 16.47804 12065 ft 224 kts 198°
2026-05-07 07:58 -1.05229 16.47253 12063 ft 224 kts 198°
2026-05-07 07:58 -1.06689 16.46702 12065 ft 224 kts 198°
2026-05-07 07:59 -1.08147 16.46151 12065 ft 224 kts 198°
2026-05-07 07:59 -1.09607 16.45600 12066 ft 224 kts 198°
2026-05-07 07:59 -1.11048 16.45055 12063 ft 224 kts 198°
2026-05-07 07:59 -1.12507 16.44504 12065 ft 224 kts 198°
2026-05-07 08:00 -1.13965 16.43952 12062 ft 224 kts 198°
2026-05-07 08:00 -1.15424 16.43402 12066 ft 224 kts 198°
2026-05-07 08:00 -1.16881 16.42851 12066 ft 224 kts 198°
2026-05-07 08:00 -1.18339 16.42300 12063 ft 224 kts 198°
2026-05-07 08:01 -1.19795 16.41750 12069 ft 224 kts 198°
2026-05-07 08:01 -1.21252 16.41200 12066 ft 224 kts 198°
2026-05-07 08:01 -1.22708 16.40650 12068 ft 224 kts 198°
2026-05-07 08:01 -1.24146 16.40105 12063 ft 224 kts 198°
2026-05-07 08:02 -1.25603 16.39556 12064 ft 224 kts 198°
2026-05-07 08:02 -1.27061 16.39005 12065 ft 224 kts 198°
2026-05-07 08:02 -1.28518 16.38454 12066 ft 224 kts 198°
2026-05-07 08:02 -1.29976 16.37903 12069 ft 224 kts 198°
2026-05-07 08:03 -1.31434 16.37352 12068 ft 224 kts 198°
2026-05-07 08:03 -1.32892 16.36801 12066 ft 224 kts 198°
2026-05-07 08:03 -1.34351 16.36250 12069 ft 224 kts 198°
2026-05-07 08:03 -1.35789 16.35707 12067 ft 224 kts 198°
2026-05-07 08:04 -1.37247 16.35157 12067 ft 224 kts 198°
2026-05-07 08:04 -1.38704 16.34605 12063 ft 224 kts 198°
2026-05-07 08:04 -1.40159 16.34055 12066 ft 224 kts 198°
2026-05-07 08:04 -1.41617 16.33504 12060 ft 224 kts 198°
2026-05-07 08:05 -1.43075 16.32954 12057 ft 224 kts 198°
2026-05-07 08:05 -1.44532 16.32402 12058 ft 224 kts 198°
2026-05-07 08:05 -1.45991 16.31852 12056 ft 224 kts 198°
2026-05-07 08:05 -1.47447 16.31301 12061 ft 224 kts 198°
2026-05-07 08:06 -1.48885 16.30757 12068 ft 224 kts 198°
2026-05-07 08:06 -1.50342 16.30207 12066 ft 224 kts 198°
2026-05-07 08:06 -1.51800 16.29656 12066 ft 224 kts 198°
2026-05-07 08:06 -1.53256 16.29105 12065 ft 224 kts 198°
2026-05-07 08:07 -1.54713 16.28555 12066 ft 224 kts 198°
2026-05-07 08:07 -1.56169 16.28004 12064 ft 224 kts 198°
2026-05-07 08:07 -1.57624 16.27455 12064 ft 224 kts 198°
2026-05-07 08:07 -1.59080 16.26904 12061 ft 224 kts 198°
2026-05-07 08:08 -1.60515 16.26362 12064 ft 223 kts 198°
2026-05-07 08:08 -1.61969 16.25812 12061 ft 223 kts 198°
2026-05-07 08:08 -1.63422 16.25263 12064 ft 223 kts 198°
2026-05-07 08:08 -1.64875 16.24714 12064 ft 223 kts 199°
2026-05-07 08:09 -1.66325 16.24166 12061 ft 223 kts 198°
2026-05-07 08:09 -1.67777 16.23616 12063 ft 223 kts 199°
2026-05-07 08:09 -1.69226 16.23069 12061 ft 223 kts 198°
2026-05-07 08:09 -1.70676 16.22521 12060 ft 223 kts 199°
2026-05-07 08:10 -1.72107 16.21980 12054 ft 223 kts 198°
2026-05-07 08:10 -1.73558 16.21432 12057 ft 223 kts 199°
2026-05-07 08:10 -1.75007 16.20883 12056 ft 223 kts 199°
2026-05-07 08:10 -1.76458 16.20336 12063 ft 223 kts 199°
2026-05-07 08:11 -1.77910 16.19787 12056 ft 223 kts 199°
2026-05-07 08:11 -1.79361 16.19238 12059 ft 223 kts 199°
2026-05-07 08:11 -1.80811 16.18689 12060 ft 223 kts 199°
2026-05-07 08:11 -1.82261 16.18142 12057 ft 223 kts 199°
2026-05-07 08:12 -1.83710 16.17593 12059 ft 223 kts 199°
2026-05-07 08:12 -1.85140 16.17053 12060 ft 223 kts 199°
2026-05-07 08:12 -1.86590 16.16505 12059 ft 223 kts 199°
2026-05-07 08:12 -1.88041 16.15956 12062 ft 223 kts 199°
2026-05-07 08:13 -1.89493 16.15408 12055 ft 223 kts 199°
2026-05-07 08:13 -1.90943 16.14858 12058 ft 223 kts 199°
2026-05-07 08:13 -1.92398 16.14309 12056 ft 223 kts 199°
2026-05-07 08:13 -1.93850 16.13759 12062 ft 223 kts 199°
2026-05-07 08:14 -1.95304 16.13210 12062 ft 223 kts 199°
2026-05-07 08:14 -1.96756 16.12660 12061 ft 223 kts 199°
2026-05-07 08:14 -1.98191 16.12119 12063 ft 224 kts 199°
2026-05-07 08:14 -1.99646 16.11569 12060 ft 224 kts 199°
2026-05-07 08:15 -2.01102 16.11019 12060 ft 224 kts 199°
2026-05-07 08:15 -2.02557 16.10469 12057 ft 224 kts 199°
2026-05-07 08:15 -2.04011 16.09919 12053 ft 224 kts 199°
2026-05-07 08:15 -2.05467 16.09368 12058 ft 223 kts 199°
2026-05-07 08:16 -2.06921 16.08820 12061 ft 223 kts 199°
2026-05-07 08:16 -2.08376 16.08269 12056 ft 223 kts 199°
2026-05-07 08:16 -2.09809 16.07728 12059 ft 223 kts 199°
2026-05-07 08:16 -2.11264 16.07178 12058 ft 223 kts 199°
2026-05-07 08:17 -2.12716 16.06629 12055 ft 223 kts 199°
2026-05-07 08:17 -2.14169 16.06081 12055 ft 223 kts 199°
2026-05-07 08:17 -2.15623 16.05531 12058 ft 223 kts 199°
2026-05-07 08:17 -2.17077 16.04981 12056 ft 223 kts 199°
2026-05-07 08:18 -2.18532 16.04431 12063 ft 223 kts 199°
2026-05-07 08:18 -2.19987 16.03881 12060 ft 224 kts 199°
2026-05-07 08:18 -2.21441 16.03331 12058 ft 223 kts 199°
2026-05-07 08:18 -2.22895 16.02782 12059 ft 223 kts 199°
2026-05-07 08:19 -2.24347 16.02233 12060 ft 223 kts 199°
2026-05-07 08:19 -2.25778 16.01691 12058 ft 223 kts 199°
2026-05-07 08:19 -2.27230 16.01143 12062 ft 223 kts 199°
2026-05-07 08:19 -2.28681 16.00594 12057 ft 223 kts 199°
2026-05-07 08:20 -2.30132 16.00046 12058 ft 223 kts 199°
2026-05-07 08:20 -2.31586 15.99496 12060 ft 223 kts 199°
2026-05-07 08:20 -2.33039 15.98947 12058 ft 223 kts 199°
2026-05-07 08:20 -2.34492 15.98397 12057 ft 223 kts 199°
2026-05-07 08:21 -2.35944 15.97848 12059 ft 223 kts 199°
2026-05-07 08:21 -2.37398 15.97298 12059 ft 223 kts 199°
2026-05-07 08:21 -2.38832 15.96756 12062 ft 223 kts 199°
2026-05-07 08:21 -2.40283 15.96207 12059 ft 223 kts 199°
2026-05-07 08:22 -2.41733 15.95660 12058 ft 223 kts 199°
2026-05-07 08:22 -2.43184 15.95110 12062 ft 223 kts 199°
2026-05-07 08:22 -2.44636 15.94562 12058 ft 223 kts 199°
2026-05-07 08:22 -2.46089 15.94013 12061 ft 223 kts 199°
2026-05-07 08:23 -2.47543 15.93462 12058 ft 224 kts 199°
2026-05-07 08:23 -2.48999 15.92912 12059 ft 224 kts 199°
2026-05-07 08:23 -2.50454 15.92362 12062 ft 223 kts 199°
2026-05-07 08:23 -2.51887 15.91819 12057 ft 223 kts 199°
2026-05-07 08:24 -2.53340 15.91270 12057 ft 223 kts 199°
2026-05-07 08:24 -2.54790 15.90721 12059 ft 223 kts 199°
2026-05-07 08:24 -2.56242 15.90173 12057 ft 223 kts 199°
2026-05-07 08:24 -2.57693 15.89624 12059 ft 223 kts 199°
2026-05-07 08:25 -2.59144 15.89075 12059 ft 223 kts 199°
2026-05-07 08:25 -2.60596 15.88525 12059 ft 223 kts 199°
2026-05-07 08:25 -2.62050 15.87976 12063 ft 224 kts 199°
2026-05-07 08:25 -2.63486 15.87433 12063 ft 224 kts 199°
2026-05-07 08:26 -2.66404 15.86329 12060 ft 224 kts 199°
2026-05-07 08:26 -2.67862 15.85777 12061 ft 224 kts 199°
2026-05-07 08:26 -2.69323 15.85224 12060 ft 224 kts 199°
2026-05-07 08:27 -2.70782 15.84672 12059 ft 224 kts 199°
2026-05-07 08:27 -2.72240 15.84120 12059 ft 224 kts 199°
2026-05-07 08:27 -2.73697 15.83570 12058 ft 224 kts 199°
2026-05-07 08:27 -2.75135 15.83026 12058 ft 224 kts 199°
2026-05-07 08:28 -2.76591 15.82474 12058 ft 224 kts 199°
2026-05-07 08:28 -2.78050 15.81922 12056 ft 224 kts 199°
2026-05-07 08:28 -2.79508 15.81371 12062 ft 224 kts 199°
2026-05-07 08:28 -2.80965 15.80819 12059 ft 224 kts 199°
2026-05-07 08:29 -2.82425 15.80267 12060 ft 224 kts 199°
2026-05-07 08:29 -2.83885 15.79716 12063 ft 224 kts 199°
2026-05-07 08:29 -2.85341 15.79164 12056 ft 224 kts 199°
2026-05-07 08:29 -2.86797 15.78612 12055 ft 224 kts 199°
2026-05-07 08:30 -2.88235 15.78069 12057 ft 224 kts 199°
2026-05-07 08:30 -2.89693 15.77517 12059 ft 224 kts 199°
2026-05-07 08:30 -2.91151 15.76965 12055 ft 224 kts 199°
2026-05-07 08:30 -2.92608 15.76414 12061 ft 224 kts 199°
2026-05-07 08:31 -2.94070 15.75861 12058 ft 225 kts 199°
2026-05-07 08:31 -2.95535 15.75307 12058 ft 225 kts 199°
2026-05-07 08:31 -2.96998 15.74751 12059 ft 225 kts 199°
2026-05-07 08:31 -2.98459 15.74198 12063 ft 224 kts 199°
2026-05-07 08:32 -2.99919 15.73647 12063 ft 224 kts 199°
2026-05-07 08:32 -3.01357 15.73103 12060 ft 224 kts 199°
2026-05-07 08:32 -3.02814 15.72550 12061 ft 224 kts 199°
2026-05-07 08:32 -3.04270 15.72000 12063 ft 224 kts 199°
2026-05-07 08:33 -3.05739 15.71507 12047 ft 222 kts 189°
2026-05-07 08:33 -3.07249 15.71575 12056 ft 216 kts 163°
2026-05-07 08:33 -3.08670 15.72043 12066 ft 215 kts 159°
2026-05-07 08:33 -3.10101 15.72479 12062 ft 215 kts 162°
2026-05-07 08:34 -3.11546 15.72869 12060 ft 215 kts 163°
2026-05-07 08:34 -3.12990 15.73269 12063 ft 216 kts 162°
2026-05-07 08:34 -3.14416 15.73668 12066 ft 216 kts 162°
2026-05-07 08:34 -3.15864 15.74070 12061 ft 216 kts 162°
2026-05-07 08:35 -3.17311 15.74473 12058 ft 216 kts 162°
2026-05-07 08:35 -3.18759 15.74876 12063 ft 216 kts 162°
2026-05-07 08:35 -3.20210 15.75281 12061 ft 217 kts 162°
2026-05-07 08:35 -3.21662 15.75684 12056 ft 216 kts 162°
2026-05-07 08:36 -3.23112 15.76089 12061 ft 216 kts 162°
2026-05-07 08:36 -3.24564 15.76494 12059 ft 217 kts 162°
2026-05-07 08:36 -3.26018 15.76897 12060 ft 217 kts 162°
2026-05-07 08:36 -3.27454 15.77295 12060 ft 217 kts 162°
2026-05-07 08:37 -3.28908 15.77702 12058 ft 217 kts 162°
2026-05-07 08:37 -3.30366 15.78107 12064 ft 218 kts 162°
2026-05-07 08:37 -3.31824 15.78513 12059 ft 217 kts 162°
2026-05-07 08:37 -3.33282 15.78920 12059 ft 217 kts 163°
2026-05-07 08:38 -3.34740 15.79325 12063 ft 218 kts 163°
2026-05-07 08:38 -3.36198 15.79732 12062 ft 217 kts 162°
2026-05-07 08:38 -3.37655 15.80138 12059 ft 217 kts 163°
2026-05-07 08:38 -3.39093 15.80537 12058 ft 217 kts 163°
2026-05-07 08:39 -3.40550 15.80943 12056 ft 218 kts 162°
2026-05-07 08:39 -3.42009 15.81350 12060 ft 218 kts 163°
2026-05-07 08:39 -3.43470 15.81756 12057 ft 218 kts 162°
2026-05-07 08:39 -3.44932 15.82163 12057 ft 218 kts 163°
2026-05-07 08:40 -3.46395 15.82571 12059 ft 218 kts 163°
2026-05-07 08:40 -3.47858 15.82978 12057 ft 218 kts 162°
2026-05-07 08:40 -3.49320 15.83386 12062 ft 218 kts 162°
2026-05-07 08:40 -3.50782 15.83793 12054 ft 218 kts 163°
2026-05-07 08:41 -3.52224 15.84194 12059 ft 218 kts 163°
2026-05-07 08:41 -3.53685 15.84602 12054 ft 218 kts 162°
2026-05-07 08:41 -3.55148 15.85009 12058 ft 218 kts 163°
2026-05-07 08:41 -3.56612 15.85416 12055 ft 219 kts 163°
2026-05-07 08:42 -3.58078 15.85825 12056 ft 219 kts 163°
2026-05-07 08:42 -3.59544 15.86234 12055 ft 219 kts 163°
2026-05-07 08:42 -3.61009 15.86642 12056 ft 219 kts 163°
2026-05-07 08:42 -3.62472 15.87049 12053 ft 218 kts 163°
2026-05-07 08:43 -3.63934 15.87457 12055 ft 218 kts 163°
2026-05-07 08:43 -3.65374 15.87858 12051 ft 218 kts 163°
2026-05-07 08:43 -3.66834 15.88266 12060 ft 218 kts 163°
2026-05-07 08:43 -3.68298 15.88673 12053 ft 218 kts 163°
2026-05-07 08:44 -3.69763 15.89081 12056 ft 219 kts 163°
2026-05-07 08:44 -3.71230 15.89491 12056 ft 219 kts 163°
2026-05-07 08:44 -3.72696 15.89899 12057 ft 219 kts 163°
2026-05-07 08:44 -3.74164 15.90306 12052 ft 219 kts 163°
2026-05-07 08:45 -3.75632 15.90715 12053 ft 219 kts 163°
2026-05-07 08:45 -3.77080 15.91121 12054 ft 219 kts 163°
2026-05-07 08:45 -3.78552 15.91531 12057 ft 220 kts 163°
2026-05-07 08:45 -3.80053 15.91780 12025 ft 221 kts 181°
2026-05-07 08:46 -3.81522 15.91364 12023 ft 222 kts 207°
2026-05-07 08:46 -3.82866 15.90500 11702 ft 239 kts 213°
2026-05-07 08:46 -3.84287 15.89566 11322 ft 249 kts 211°
2026-05-07 08:46 -3.85804 15.88684 10967 ft 255 kts 208°
2026-05-07 08:47 -3.87364 15.87795 10625 ft 261 kts 209°
2026-05-07 08:47 -3.88940 15.86870 10277 ft 264 kts 210°
2026-05-07 08:47 -3.90514 15.85942 9975 ft 267 kts 210°
2026-05-07 08:47 -3.92125 15.84999 9636 ft 269 kts 210°
2026-05-07 08:48 -3.93748 15.84050 9293 ft 271 kts 210°
2026-05-07 08:48 -3.95378 15.83096 8960 ft 272 kts 210°
2026-05-07 08:48 -3.97011 15.82140 8636 ft 272 kts 210°
2026-05-07 08:48 -3.98646 15.81182 8311 ft 272 kts 210°
2026-05-07 08:49 -4.00282 15.80224 7991 ft 272 kts 210°
2026-05-07 08:49 -4.01914 15.79267 7696 ft 272 kts 210°
2026-05-07 08:49 -4.03547 15.78311 7396 ft 272 kts 210°
2026-05-07 08:49 -4.05156 15.77369 7104 ft 271 kts 210°
2026-05-07 08:50 -4.06783 15.76416 6806 ft 271 kts 210°
2026-05-07 08:50 -4.08406 15.75465 6509 ft 270 kts 210°
2026-05-07 08:50 -4.10023 15.74518 6229 ft 269 kts 210°
2026-05-07 08:50 -4.11634 15.73574 5932 ft 268 kts 210°
2026-05-07 08:51 -4.13242 15.72631 5639 ft 267 kts 210°
2026-05-07 08:51 -4.14846 15.71692 5346 ft 267 kts 210°
2026-05-07 08:51 -4.16448 15.70754 5068 ft 266 kts 210°
2026-05-07 08:51 -4.18025 15.69829 4806 ft 266 kts 210°
2026-05-07 08:52 -4.19617 15.68897 4509 ft 265 kts 210°
2026-05-07 08:52 -4.21210 15.67963 4219 ft 265 kts 211°
2026-05-07 08:52 -4.22796 15.67032 3970 ft 264 kts 210°
2026-05-07 08:52 -4.24359 15.66080 3720 ft 262 kts 216°
2026-05-07 08:53 -4.25604 15.64761 3440 ft 262 kts 235°
2026-05-07 08:53 -4.26529 15.63200 3181 ft 260 kts 240°
2026-05-07 08:53 -4.27456 15.61647 2921 ft 260 kts 237°
2026-05-07 08:53 -4.28451 15.60142 2668 ft 259 kts 236°
2026-05-07 08:54 -4.29428 15.58657 2395 ft 251 kts 237°
2026-05-07 08:54 -4.30334 15.57234 2307 ft 236 kts 237°
2026-05-07 08:54 -4.31189 15.55907 2311 ft 217 kts 237°
2026-05-07 08:54 -4.31981 15.54717 2304 ft 196 kts 236°
2026-05-07 08:55 -4.32700 15.53593 2334 ft 187 kts 238°
2026-05-07 08:55 -4.33374 15.52544 2500 ft 168 kts 236°
2026-05-07 08:55 -4.33982 15.51607 2382 ft 161 kts 238°
2026-05-07 08:55 -4.34547 15.50701 2210 ft 150 kts 237°
2026-05-07 08:56 -4.35109 15.49849 2017 ft 144 kts 237°
2026-05-07 08:56 -4.35622 15.49027 1839 ft 132 kts 237°
2026-05-07 08:56 -4.36108 15.48289 1664 ft 124 kts 237°
2026-05-07 08:56 -4.36543 15.47587 1485 ft 120 kts 238°
2026-05-07 08:57 -4.36993 15.46905 1391 ft 115 kts 238°
2026-05-07 08:57 -4.37428 15.46236 1271 ft 114 kts 239°
2026-05-07 08:57 -4.37848 15.45576 1132 ft 111 kts 239°
2026-05-07 08:57 -4.38262 15.44931 1015 ft 104 kts 237°
2026-05-07 08:58 -4.38584 15.44436 1012 ft 54 kts 237°
2026-05-07 08:58 -4.38709 15.44243 1011 ft 24 kts 237°
2026-05-07 08:58 -4.38791 15.44121 1009 ft 17 kts 227°
2026-05-07 08:58 -4.38868 15.44106 1009 ft 10 kts 157°
2026-05-07 08:59 -4.38916 15.44133 1009 ft 6 kts 147°
2026-05-07 08:59 -4.38940 15.44149 1010 ft 3 kts 147°
2026-05-07 08:59 -4.38966 15.44171 1010 ft 7 kts 114°
2026-05-07 08:59 -4.38940 15.44236 1010 ft 14 kts 57°
2026-05-07 09:00 -4.38879 15.44328 1010 ft 17 kts 56°
2026-05-07 09:00 -4.38837 15.44430 1011 ft 14 kts 90°
2026-05-07 09:00 -4.38858 15.44499 1010 ft 7 kts 142°
2026-05-07 09:00 -4.38888 15.44502 1010 ft 2 kts 195°
2026-05-07 09:01 -4.38896 15.44500 1010 ft 2 kts 195°
2026-05-07 09:01 -4.38899 15.44499 1010 ft 0 kts 195°